sensor_id;sensor_type;location;lat;lon;timestamp;P1;durP1;ratioP1;P2;durP2;ratioP2
32705;SDS011;19094;50.972;3.538;2023-10-19T00:00:47;3.25;;;1.00;;
32705;SDS011;19094;50.972;3.538;2023-10-19T00:03:15;4.85;;;1.10;;
32705;SDS011;19094;50.972;3.538;2023-10-19T00:05:42;2.25;;;0.65;;
32705;SDS011;19094;50.972;3.538;2023-10-19T00:08:12;2.90;;;0.80;;
32705;SDS011;19094;50.972;3.538;2023-10-19T00:10:38;2.53;;;0.77;;
32705;SDS011;19094;50.972;3.538;2023-10-19T00:13:07;3.55;;;0.80;;
32705;SDS011;19094;50.972;3.538;2023-10-19T00:15:34;4.63;;;0.98;;
32705;SDS011;19094;50.972;3.538;2023-10-19T00:18:05;2.92;;;0.82;;
32705;SDS011;19094;50.972;3.538;2023-10-19T00:20:53;6.40;;;1.10;;
32705;SDS011;19094;50.972;3.538;2023-10-19T00:23:39;3.10;;;0.95;;
32705;SDS011;19094;50.972;3.538;2023-10-19T00:26:05;5.18;;;1.45;;
32705;SDS011;19094;50.972;3.538;2023-10-19T00:28:35;5.18;;;1.25;;
32705;SDS011;19094;50.972;3.538;2023-10-19T00:31:03;5.57;;;1.10;;
32705;SDS011;19094;50.972;3.538;2023-10-19T00:33:33;6.10;;;1.27;;
32705;SDS011;19094;50.972;3.538;2023-10-19T00:36:05;7.53;;;1.10;;
32705;SDS011;19094;50.972;3.538;2023-10-19T00:38:38;4.53;;;1.40;;
32705;SDS011;19094;50.972;3.538;2023-10-19T00:41:06;7.30;;;1.40;;
32705;SDS011;19094;50.972;3.538;2023-10-19T00:43:40;3.95;;;0.88;;
32705;SDS011;19094;50.972;3.538;2023-10-19T00:46:13;5.97;;;0.95;;
32705;SDS011;19094;50.972;3.538;2023-10-19T00:48:50;3.10;;;1.15;;
32705;SDS011;19094;50.972;3.538;2023-10-19T00:51:22;4.80;;;1.20;;
32705;SDS011;19094;50.972;3.538;2023-10-19T00:53:53;8.73;;;1.48;;
32705;SDS011;19094;50.972;3.538;2023-10-19T00:56:21;6.50;;;1.27;;
32705;SDS011;19094;50.972;3.538;2023-10-19T00:58:49;7.70;;;1.00;;
32705;SDS011;19094;50.972;3.538;2023-10-19T01:01:19;5.80;;;1.13;;
32705;SDS011;19094;50.972;3.538;2023-10-19T01:03:50;6.30;;;1.33;;
32705;SDS011;19094;50.972;3.538;2023-10-19T01:06:21;3.10;;;0.82;;
32705;SDS011;19094;50.972;3.538;2023-10-19T01:08:50;5.97;;;1.27;;
32705;SDS011;19094;50.972;3.538;2023-10-19T01:11:17;9.40;;;1.23;;
32705;SDS011;19094;50.972;3.538;2023-10-19T01:13:46;11.48;;;1.10;;
32705;SDS011;19094;50.972;3.538;2023-10-19T01:16:16;6.47;;;1.30;;
32705;SDS011;19094;50.972;3.538;2023-10-19T01:18:51;7.22;;;1.17;;
32705;SDS011;19094;50.972;3.538;2023-10-19T01:21:21;7.75;;;1.15;;
32705;SDS011;19094;50.972;3.538;2023-10-19T01:23:53;10.30;;;1.20;;
32705;SDS011;19094;50.972;3.538;2023-10-19T01:26:19;5.22;;;1.10;;
32705;SDS011;19094;50.972;3.538;2023-10-19T01:28:51;3.65;;;1.08;;
32705;SDS011;19094;50.972;3.538;2023-10-19T01:31:21;5.32;;;1.20;;
32705;SDS011;19094;50.972;3.538;2023-10-19T01:33:48;2.67;;;0.80;;
32705;SDS011;19094;50.972;3.538;2023-10-19T01:36:14;7.47;;;1.05;;
32705;SDS011;19094;50.972;3.538;2023-10-19T01:38:42;14.57;;;1.48;;
32705;SDS011;19094;50.972;3.538;2023-10-19T01:41:09;5.68;;;1.25;;
32705;SDS011;19094;50.972;3.538;2023-10-19T01:43:44;5.53;;;1.27;;
32705;SDS011;19094;50.972;3.538;2023-10-19T01:46:12;4.85;;;1.20;;
32705;SDS011;19094;50.972;3.538;2023-10-19T01:48:39;4.57;;;1.17;;
32705;SDS011;19094;50.972;3.538;2023-10-19T01:51:10;6.00;;;1.10;;
32705;SDS011;19094;50.972;3.538;2023-10-19T01:53:39;6.85;;;1.25;;
32705;SDS011;19094;50.972;3.538;2023-10-19T01:56:09;9.90;;;1.23;;
32705;SDS011;19094;50.972;3.538;2023-10-19T01:58:38;5.70;;;1.27;;
32705;SDS011;19094;50.972;3.538;2023-10-19T02:01:06;6.57;;;1.55;;
32705;SDS011;19094;50.972;3.538;2023-10-19T02:03:41;6.32;;;1.25;;
32705;SDS011;19094;50.972;3.538;2023-10-19T02:06:08;7.00;;;1.10;;
32705;SDS011;19094;50.972;3.538;2023-10-19T02:08:48;7.15;;;1.55;;
32705;SDS011;19094;50.972;3.538;2023-10-19T02:11:22;7.00;;;1.10;;
32705;SDS011;19094;50.972;3.538;2023-10-19T02:13:50;5.10;;;1.15;;
32705;SDS011;19094;50.972;3.538;2023-10-19T02:16:21;6.78;;;1.50;;
32705;SDS011;19094;50.972;3.538;2023-10-19T02:18:50;6.38;;;1.42;;
32705;SDS011;19094;50.972;3.538;2023-10-19T02:21:17;6.18;;;1.25;;
32705;SDS011;19094;50.972;3.538;2023-10-19T02:23:47;3.53;;;1.17;;
32705;SDS011;19094;50.972;3.538;2023-10-19T02:26:16;9.18;;;1.63;;
32705;SDS011;19094;50.972;3.538;2023-10-19T02:28:44;5.18;;;1.48;;
32705;SDS011;19094;50.972;3.538;2023-10-19T02:31:15;7.43;;;1.38;;
32705;SDS011;19094;50.972;3.538;2023-10-19T02:33:47;4.05;;;1.10;;
32705;SDS011;19094;50.972;3.538;2023-10-19T02:36:17;4.13;;;0.90;;
32705;SDS011;19094;50.972;3.538;2023-10-19T02:38:44;6.78;;;1.27;;
32705;SDS011;19094;50.972;3.538;2023-10-19T02:41:19;3.65;;;1.05;;
32705;SDS011;19094;50.972;3.538;2023-10-19T02:43:46;6.68;;;1.40;;
32705;SDS011;19094;50.972;3.538;2023-10-19T02:46:16;7.07;;;1.60;;
32705;SDS011;19094;50.972;3.538;2023-10-19T02:48:43;5.57;;;1.40;;
32705;SDS011;19094;50.972;3.538;2023-10-19T02:51:12;9.90;;;1.85;;
32705;SDS011;19094;50.972;3.538;2023-10-19T02:53:41;5.07;;;1.50;;
32705;SDS011;19094;50.972;3.538;2023-10-19T02:56:14;7.03;;;1.45;;
32705;SDS011;19094;50.972;3.538;2023-10-19T02:58:44;6.45;;;1.50;;
32705;SDS011;19094;50.972;3.538;2023-10-19T03:01:18;11.90;;;1.98;;
32705;SDS011;19094;50.972;3.538;2023-10-19T03:03:51;6.35;;;1.70;;
32705;SDS011;19094;50.972;3.538;2023-10-19T03:06:21;5.43;;;1.60;;
32705;SDS011;19094;50.972;3.538;2023-10-19T03:08:48;6.90;;;1.75;;
32705;SDS011;19094;50.972;3.538;2023-10-19T03:11:25;10.95;;;1.67;;
32705;SDS011;19094;50.972;3.538;2023-10-19T03:13:52;7.50;;;1.92;;
32705;SDS011;19094;50.972;3.538;2023-10-19T03:16:18;8.73;;;1.67;;
32705;SDS011;19094;50.972;3.538;2023-10-19T03:18:45;9.90;;;2.10;;
32705;SDS011;19094;50.972;3.538;2023-10-19T03:21:11;6.28;;;1.70;;
32705;SDS011;19094;50.972;3.538;2023-10-19T03:23:37;8.48;;;2.08;;
32705;SDS011;19094;50.972;3.538;2023-10-19T03:26:03;5.47;;;1.73;;
32705;SDS011;19094;50.972;3.538;2023-10-19T03:29:04;6.60;;;1.20;;
32705;SDS011;19094;50.972;3.538;2023-10-19T03:31:36;9.32;;;1.67;;
32705;SDS011;19094;50.972;3.538;2023-10-19T03:34:08;6.60;;;1.92;;
32705;SDS011;19094;50.972;3.538;2023-10-19T03:36:38;12.65;;;1.80;;
32705;SDS011;19094;50.972;3.538;2023-10-19T03:39:04;6.15;;;2.00;;
32705;SDS011;19094;50.972;3.538;2023-10-19T03:41:37;10.48;;;1.83;;
32705;SDS011;19094;50.972;3.538;2023-10-19T03:44:07;8.70;;;1.80;;
32705;SDS011;19094;50.972;3.538;2023-10-19T03:46:38;8.45;;;1.90;;
32705;SDS011;19094;50.972;3.538;2023-10-19T03:49:17;10.45;;;2.33;;
32705;SDS011;19094;50.972;3.538;2023-10-19T03:51:44;7.53;;;1.83;;
32705;SDS011;19094;50.972;3.538;2023-10-19T03:54:43;10.82;;;3.03;;
32705;SDS011;19094;50.972;3.538;2023-10-19T03:57:12;6.20;;;1.70;;
32705;SDS011;19094;50.972;3.538;2023-10-19T03:59:47;8.15;;;2.10;;
32705;SDS011;19094;50.972;3.538;2023-10-19T04:02:15;6.47;;;1.98;;
32705;SDS011;19094;50.972;3.538;2023-10-19T04:04:42;9.63;;;1.98;;
32705;SDS011;19094;50.972;3.538;2023-10-19T04:07:16;7.30;;;1.67;;
32705;SDS011;19094;50.972;3.538;2023-10-19T04:09:49;12.00;;;1.80;;
32705;SDS011;19094;50.972;3.538;2023-10-19T04:12:25;6.60;;;2.40;;
32705;SDS011;19094;50.972;3.538;2023-10-19T04:14:54;10.57;;;2.20;;
32705;SDS011;19094;50.972;3.538;2023-10-19T04:17:20;4.60;;;1.50;;
32705;SDS011;19094;50.972;3.538;2023-10-19T04:19:48;11.25;;;2.55;;
32705;SDS011;19094;50.972;3.538;2023-10-19T04:22:14;10.20;;;1.80;;
32705;SDS011;19094;50.972;3.538;2023-10-19T04:24:47;5.38;;;1.73;;
32705;SDS011;19094;50.972;3.538;2023-10-19T04:27:12;10.43;;;2.22;;
32705;SDS011;19094;50.972;3.538;2023-10-19T04:29:38;9.23;;;1.90;;
32705;SDS011;19094;50.972;3.538;2023-10-19T04:32:06;10.05;;;1.92;;
32705;SDS011;19094;50.972;3.538;2023-10-19T04:34:32;10.27;;;2.05;;
32705;SDS011;19094;50.972;3.538;2023-10-19T04:36:57;8.27;;;2.08;;
32705;SDS011;19094;50.972;3.538;2023-10-19T04:39:23;6.60;;;2.00;;
32705;SDS011;19094;50.972;3.538;2023-10-19T04:41:49;9.63;;;2.33;;
32705;SDS011;19094;50.972;3.538;2023-10-19T04:44:15;11.00;;;2.08;;
32705;SDS011;19094;50.972;3.538;2023-10-19T04:46:41;10.13;;;2.38;;
32705;SDS011;19094;50.972;3.538;2023-10-19T04:49:07;20.02;;;2.53;;
32705;SDS011;19094;50.972;3.538;2023-10-19T04:51:33;8.07;;;1.95;;
32705;SDS011;19094;50.972;3.538;2023-10-19T04:54:03;9.40;;;2.28;;
32705;SDS011;19094;50.972;3.538;2023-10-19T04:56:30;14.02;;;2.10;;
32705;SDS011;19094;50.972;3.538;2023-10-19T04:58:57;14.00;;;2.15;;
32705;SDS011;19094;50.972;3.538;2023-10-19T05:01:22;8.30;;;2.55;;
32705;SDS011;19094;50.972;3.538;2023-10-19T05:03:48;11.68;;;2.45;;
32705;SDS011;19094;50.972;3.538;2023-10-19T05:06:14;13.57;;;2.45;;
32705;SDS011;19094;50.972;3.538;2023-10-19T05:08:39;11.30;;;2.42;;
32705;SDS011;19094;50.972;3.538;2023-10-19T05:11:05;13.30;;;2.60;;
32705;SDS011;19094;50.972;3.538;2023-10-19T05:13:31;9.88;;;2.78;;
32705;SDS011;19094;50.972;3.538;2023-10-19T05:15:58;14.68;;;3.13;;
32705;SDS011;19094;50.972;3.538;2023-10-19T05:18:26;10.57;;;1.98;;
32705;SDS011;19094;50.972;3.538;2023-10-19T05:20:52;9.50;;;2.33;;
32705;SDS011;19094;50.972;3.538;2023-10-19T05:23:22;12.25;;;2.10;;
32705;SDS011;19094;50.972;3.538;2023-10-19T05:25:52;10.85;;;2.22;;
32705;SDS011;19094;50.972;3.538;2023-10-19T05:28:19;10.38;;;2.03;;
32705;SDS011;19094;50.972;3.538;2023-10-19T05:30:47;11.48;;;2.17;;
32705;SDS011;19094;50.972;3.538;2023-10-19T05:33:14;9.43;;;2.35;;
32705;SDS011;19094;50.972;3.538;2023-10-19T05:35:39;10.25;;;2.17;;
32705;SDS011;19094;50.972;3.538;2023-10-19T05:38:06;13.00;;;2.60;;
32705;SDS011;19094;50.972;3.538;2023-10-19T05:40:34;10.73;;;2.67;;
32705;SDS011;19094;50.972;3.538;2023-10-19T05:43:01;7.22;;;2.50;;
32705;SDS011;19094;50.972;3.538;2023-10-19T05:45:27;12.95;;;2.72;;
32705;SDS011;19094;50.972;3.538;2023-10-19T05:47:54;14.73;;;2.50;;
32705;SDS011;19094;50.972;3.538;2023-10-19T05:50:22;12.43;;;3.50;;
32705;SDS011;19094;50.972;3.538;2023-10-19T05:52:48;23.95;;;3.25;;
32705;SDS011;19094;50.972;3.538;2023-10-19T05:55:14;9.70;;;2.67;;
32705;SDS011;19094;50.972;3.538;2023-10-19T05:57:40;20.40;;;3.15;;
32705;SDS011;19094;50.972;3.538;2023-10-19T06:00:07;19.38;;;2.75;;
32705;SDS011;19094;50.972;3.538;2023-10-19T06:02:38;12.95;;;2.90;;
32705;SDS011;19094;50.972;3.538;2023-10-19T06:05:14;11.40;;;2.55;;
32705;SDS011;19094;50.972;3.538;2023-10-19T06:07:50;13.05;;;2.92;;
32705;SDS011;19094;50.972;3.538;2023-10-19T06:10:17;15.30;;;2.97;;
32705;SDS011;19094;50.972;3.538;2023-10-19T06:12:45;17.35;;;3.03;;
32705;SDS011;19094;50.972;3.538;2023-10-19T06:15:13;17.98;;;3.22;;
32705;SDS011;19094;50.972;3.538;2023-10-19T06:17:40;17.65;;;3.75;;
32705;SDS011;19094;50.972;3.538;2023-10-19T06:20:10;16.98;;;3.70;;
32705;SDS011;19094;50.972;3.538;2023-10-19T06:22:55;26.23;;;3.80;;
32705;SDS011;19094;50.972;3.538;2023-10-19T06:25:29;16.13;;;3.45;;
32705;SDS011;19094;50.972;3.538;2023-10-19T06:27:55;17.67;;;3.50;;
32705;SDS011;19094;50.972;3.538;2023-10-19T06:30:22;13.05;;;3.30;;
32705;SDS011;19094;50.972;3.538;2023-10-19T06:32:49;15.07;;;3.03;;
32705;SDS011;19094;50.972;3.538;2023-10-19T06:35:18;11.43;;;2.90;;
32705;SDS011;19094;50.972;3.538;2023-10-19T06:37:45;12.65;;;2.67;;
32705;SDS011;19094;50.972;3.538;2023-10-19T06:40:11;28.98;;;3.08;;
32705;SDS011;19094;50.972;3.538;2023-10-19T06:42:42;18.48;;;3.05;;
32705;SDS011;19094;50.972;3.538;2023-10-19T06:45:11;14.07;;;2.60;;
32705;SDS011;19094;50.972;3.538;2023-10-19T06:47:44;28.48;;;3.72;;
32705;SDS011;19094;50.972;3.538;2023-10-19T06:50:15;14.05;;;2.80;;
32705;SDS011;19094;50.972;3.538;2023-10-19T06:52:46;17.65;;;3.17;;
32705;SDS011;19094;50.972;3.538;2023-10-19T06:55:16;10.55;;;2.38;;
32705;SDS011;19094;50.972;3.538;2023-10-19T06:57:47;17.45;;;2.97;;
32705;SDS011;19094;50.972;3.538;2023-10-19T07:00:15;17.98;;;3.10;;
32705;SDS011;19094;50.972;3.538;2023-10-19T07:02:54;19.15;;;3.25;;
32705;SDS011;19094;50.972;3.538;2023-10-19T07:05:21;21.15;;;3.33;;
32705;SDS011;19094;50.972;3.538;2023-10-19T07:07:49;23.42;;;3.65;;
32705;SDS011;19094;50.972;3.538;2023-10-19T07:10:20;16.55;;;3.25;;
32705;SDS011;19094;50.972;3.538;2023-10-19T07:12:47;17.02;;;3.53;;
32705;SDS011;19094;50.972;3.538;2023-10-19T07:15:15;14.40;;;2.60;;
32705;SDS011;19094;50.972;3.538;2023-10-19T07:17:46;16.00;;;3.60;;
32705;SDS011;19094;50.972;3.538;2023-10-19T07:20:12;18.85;;;2.92;;
32705;SDS011;19094;50.972;3.538;2023-10-19T07:23:01;12.63;;;3.08;;
32705;SDS011;19094;50.972;3.538;2023-10-19T07:25:35;15.20;;;3.15;;
32705;SDS011;19094;50.972;3.538;2023-10-19T07:28:08;17.00;;;4.25;;
32705;SDS011;19094;50.972;3.538;2023-10-19T07:30:34;15.25;;;3.38;;
32705;SDS011;19094;50.972;3.538;2023-10-19T07:33:00;13.85;;;3.20;;
32705;SDS011;19094;50.972;3.538;2023-10-19T07:35:29;14.05;;;3.63;;
32705;SDS011;19094;50.972;3.538;2023-10-19T07:38:00;18.88;;;3.50;;
32705;SDS011;19094;50.972;3.538;2023-10-19T07:40:26;19.48;;;3.55;;
32705;SDS011;19094;50.972;3.538;2023-10-19T07:42:52;18.95;;;3.40;;
32705;SDS011;19094;50.972;3.538;2023-10-19T07:45:20;22.35;;;4.13;;
32705;SDS011;19094;50.972;3.538;2023-10-19T07:47:46;13.80;;;3.22;;
32705;SDS011;19094;50.972;3.538;2023-10-19T07:50:12;19.05;;;3.85;;
32705;SDS011;19094;50.972;3.538;2023-10-19T07:52:42;15.13;;;2.63;;
32705;SDS011;19094;50.972;3.538;2023-10-19T07:55:13;21.80;;;3.47;;
32705;SDS011;19094;50.972;3.538;2023-10-19T07:57:40;12.23;;;3.22;;
32705;SDS011;19094;50.972;3.538;2023-10-19T08:00:06;21.50;;;4.22;;
32705;SDS011;19094;50.972;3.538;2023-10-19T08:02:33;13.30;;;3.35;;
32705;SDS011;19094;50.972;3.538;2023-10-19T08:05:00;12.98;;;3.03;;
32705;SDS011;19094;50.972;3.538;2023-10-19T08:07:28;15.25;;;3.40;;
32705;SDS011;19094;50.972;3.538;2023-10-19T08:09:55;15.57;;;3.60;;
32705;SDS011;19094;50.972;3.538;2023-10-19T08:12:24;19.48;;;3.60;;
32705;SDS011;19094;50.972;3.538;2023-10-19T08:14:51;12.25;;;3.72;;
32705;SDS011;19094;50.972;3.538;2023-10-19T08:17:21;16.55;;;3.55;;
32705;SDS011;19094;50.972;3.538;2023-10-19T08:19:47;19.90;;;4.03;;
32705;SDS011;19094;50.972;3.538;2023-10-19T08:22:12;12.77;;;3.33;;
32705;SDS011;19094;50.972;3.538;2023-10-19T08:24:40;21.17;;;3.78;;
32705;SDS011;19094;50.972;3.538;2023-10-19T08:27:08;23.42;;;3.75;;
32705;SDS011;19094;50.972;3.538;2023-10-19T08:29:36;12.90;;;3.00;;
32705;SDS011;19094;50.972;3.538;2023-10-19T08:32:02;12.43;;;2.78;;
32705;SDS011;19094;50.972;3.538;2023-10-19T08:34:28;20.27;;;3.42;;
32705;SDS011;19094;50.972;3.538;2023-10-19T08:36:54;16.50;;;3.58;;
32705;SDS011;19094;50.972;3.538;2023-10-19T08:39:20;15.82;;;3.13;;
32705;SDS011;19094;50.972;3.538;2023-10-19T08:41:49;16.25;;;3.35;;
32705;SDS011;19094;50.972;3.538;2023-10-19T08:44:18;17.52;;;3.33;;
32705;SDS011;19094;50.972;3.538;2023-10-19T08:46:45;11.43;;;2.90;;
32705;SDS011;19094;50.972;3.538;2023-10-19T08:49:13;14.70;;;3.05;;
32705;SDS011;19094;50.972;3.538;2023-10-19T08:51:43;18.75;;;3.60;;
32705;SDS011;19094;50.972;3.538;2023-10-19T08:54:10;14.00;;;2.83;;
32705;SDS011;19094;50.972;3.538;2023-10-19T08:56:37;17.40;;;3.78;;
32705;SDS011;19094;50.972;3.538;2023-10-19T08:59:04;14.88;;;3.28;;
32705;SDS011;19094;50.972;3.538;2023-10-19T09:01:31;17.23;;;2.97;;
32705;SDS011;19094;50.972;3.538;2023-10-19T09:03:57;13.40;;;3.05;;
32705;SDS011;19094;50.972;3.538;2023-10-19T09:06:23;22.17;;;2.92;;
32705;SDS011;19094;50.972;3.538;2023-10-19T09:08:50;15.73;;;3.42;;
32705;SDS011;19094;50.972;3.538;2023-10-19T09:11:16;16.77;;;3.25;;
32705;SDS011;19094;50.972;3.538;2023-10-19T09:16:17;18.05;;;3.30;;
32705;SDS011;19094;50.972;3.538;2023-10-19T09:18:44;16.45;;;3.70;;
32705;SDS011;19094;50.972;3.538;2023-10-19T09:21:18;17.60;;;3.60;;
32705;SDS011;19094;50.972;3.538;2023-10-19T09:23:56;18.15;;;3.25;;
32705;SDS011;19094;50.972;3.538;2023-10-19T09:26:22;18.58;;;2.80;;
32705;SDS011;19094;50.972;3.538;2023-10-19T09:28:49;14.25;;;3.25;;
32705;SDS011;19094;50.972;3.538;2023-10-19T09:31:19;18.58;;;4.25;;
32705;SDS011;19094;50.972;3.538;2023-10-19T09:33:47;15.02;;;3.28;;
32705;SDS011;19094;50.972;3.538;2023-10-19T09:36:18;18.65;;;3.75;;
32705;SDS011;19094;50.972;3.538;2023-10-19T09:38:46;20.40;;;4.05;;
32705;SDS011;19094;50.972;3.538;2023-10-19T09:41:14;16.95;;;4.00;;
32705;SDS011;19094;50.972;3.538;2023-10-19T09:43:43;16.27;;;4.15;;
32705;SDS011;19094;50.972;3.538;2023-10-19T09:46:11;20.52;;;4.05;;
32705;SDS011;19094;50.972;3.538;2023-10-19T09:48:47;18.30;;;3.97;;
32705;SDS011;19094;50.972;3.538;2023-10-19T09:51:14;15.75;;;3.53;;
32705;SDS011;19094;50.972;3.538;2023-10-19T09:53:42;14.73;;;3.25;;
32705;SDS011;19094;50.972;3.538;2023-10-19T09:56:19;26.63;;;4.05;;
32705;SDS011;19094;50.972;3.538;2023-10-19T09:58:54;18.70;;;3.75;;
32705;SDS011;19094;50.972;3.538;2023-10-19T10:01:24;13.63;;;3.25;;
32705;SDS011;19094;50.972;3.538;2023-10-19T10:03:51;26.38;;;3.58;;
32705;SDS011;19094;50.972;3.538;2023-10-19T10:06:26;25.08;;;9.02;;
32705;SDS011;19094;50.972;3.538;2023-10-19T10:08:52;15.05;;;3.10;;
32705;SDS011;19094;50.972;3.538;2023-10-19T10:11:27;16.15;;;3.13;;
32705;SDS011;19094;50.972;3.538;2023-10-19T10:13:54;20.38;;;3.60;;
32705;SDS011;19094;50.972;3.538;2023-10-19T10:16:28;26.52;;;3.70;;
32705;SDS011;19094;50.972;3.538;2023-10-19T10:18:54;22.20;;;4.35;;
32705;SDS011;19094;50.972;3.538;2023-10-19T10:21:25;20.55;;;4.22;;
32705;SDS011;19094;50.972;3.538;2023-10-19T10:26:23;12.20;;;3.05;;
32705;SDS011;19094;50.972;3.538;2023-10-19T10:29:10;18.80;;;3.70;;
32705;SDS011;19094;50.972;3.538;2023-10-19T10:31:53;17.33;;;3.10;;
32705;SDS011;19094;50.972;3.538;2023-10-19T10:37:09;24.20;;;4.60;;
32705;SDS011;19094;50.972;3.538;2023-10-19T10:39:36;22.30;;;3.42;;
32705;SDS011;19094;50.972;3.538;2023-10-19T10:42:04;15.30;;;3.15;;
32705;SDS011;19094;50.972;3.538;2023-10-19T10:44:37;17.85;;;2.92;;
32705;SDS011;19094;50.972;3.538;2023-10-19T10:47:08;17.63;;;3.17;;
32705;SDS011;19094;50.972;3.538;2023-10-19T10:54:50;14.85;;;3.58;;
32705;SDS011;19094;50.972;3.538;2023-10-19T10:57:17;16.95;;;3.72;;
32705;SDS011;19094;50.972;3.538;2023-10-19T10:59:44;13.45;;;3.25;;
32705;SDS011;19094;50.972;3.538;2023-10-19T11:02:17;16.50;;;3.88;;
32705;SDS011;19094;50.972;3.538;2023-10-19T11:04:47;26.65;;;3.67;;
32705;SDS011;19094;50.972;3.538;2023-10-19T11:07:19;17.60;;;3.28;;
32705;SDS011;19094;50.972;3.538;2023-10-19T11:09:46;20.53;;;4.00;;
32705;SDS011;19094;50.972;3.538;2023-10-19T11:12:12;12.38;;;3.45;;
32705;SDS011;19094;50.972;3.538;2023-10-19T11:14:56;19.42;;;3.50;;
32705;SDS011;19094;50.972;3.538;2023-10-19T11:17:24;21.55;;;3.40;;
32705;SDS011;19094;50.972;3.538;2023-10-19T11:19:55;14.50;;;3.47;;
32705;SDS011;19094;50.972;3.538;2023-10-19T11:22:22;15.07;;;3.85;;
32705;SDS011;19094;50.972;3.538;2023-10-19T11:24:50;15.93;;;4.18;;
32705;SDS011;19094;50.972;3.538;2023-10-19T11:27:26;16.02;;;3.72;;
32705;SDS011;19094;50.972;3.538;2023-10-19T11:29:54;19.80;;;4.28;;
32705;SDS011;19094;50.972;3.538;2023-10-19T11:32:35;17.95;;;3.60;;
32705;SDS011;19094;50.972;3.538;2023-10-19T11:35:03;18.88;;;4.22;;
32705;SDS011;19094;50.972;3.538;2023-10-19T11:37:29;12.02;;;3.45;;
32705;SDS011;19094;50.972;3.538;2023-10-19T11:39:55;17.55;;;3.40;;
32705;SDS011;19094;50.972;3.538;2023-10-19T11:42:20;14.15;;;3.50;;
32705;SDS011;19094;50.972;3.538;2023-10-19T11:44:46;17.52;;;3.28;;
32705;SDS011;19094;50.972;3.538;2023-10-19T11:47:12;9.80;;;3.28;;
32705;SDS011;19094;50.972;3.538;2023-10-19T11:49:41;8.07;;;2.70;;
32705;SDS011;19094;50.972;3.538;2023-10-19T11:52:06;13.38;;;2.83;;
32705;SDS011;19094;50.972;3.538;2023-10-19T11:54:33;12.82;;;3.25;;
32705;SDS011;19094;50.972;3.538;2023-10-19T11:56:59;9.88;;;2.58;;
32705;SDS011;19094;50.972;3.538;2023-10-19T11:59:24;10.25;;;2.92;;
32705;SDS011;19094;50.972;3.538;2023-10-19T12:01:51;11.80;;;3.10;;
32705;SDS011;19094;50.972;3.538;2023-10-19T12:04:17;5.45;;;1.98;;
32705;SDS011;19094;50.972;3.538;2023-10-19T12:06:44;16.27;;;2.85;;
32705;SDS011;19094;50.972;3.538;2023-10-19T12:09:12;7.45;;;1.92;;
32705;SDS011;19094;50.972;3.538;2023-10-19T12:11:41;8.07;;;2.38;;
32705;SDS011;19094;50.972;3.538;2023-10-19T12:14:07;5.72;;;2.22;;
32705;SDS011;19094;50.972;3.538;2023-10-19T12:16:40;11.25;;;2.20;;
32705;SDS011;19094;50.972;3.538;2023-10-19T12:19:06;7.25;;;2.13;;
32705;SDS011;19094;50.972;3.538;2023-10-19T12:21:35;7.38;;;1.80;;
32705;SDS011;19094;50.972;3.538;2023-10-19T12:24:02;11.13;;;2.38;;
32705;SDS011;19094;50.972;3.538;2023-10-19T12:26:30;9.73;;;2.55;;
32705;SDS011;19094;50.972;3.538;2023-10-19T12:28:56;5.88;;;2.22;;
32705;SDS011;19094;50.972;3.538;2023-10-19T12:31:23;6.55;;;2.05;;
32705;SDS011;19094;50.972;3.538;2023-10-19T12:33:48;7.30;;;2.20;;
32705;SDS011;19094;50.972;3.538;2023-10-19T12:36:14;8.88;;;2.47;;
32705;SDS011;19094;50.972;3.538;2023-10-19T12:38:52;5.35;;;2.22;;
32705;SDS011;19094;50.972;3.538;2023-10-19T12:41:18;6.15;;;2.15;;
32705;SDS011;19094;50.972;3.538;2023-10-19T12:43:44;8.10;;;1.98;;
32705;SDS011;19094;50.972;3.538;2023-10-19T12:46:11;7.28;;;1.92;;
32705;SDS011;19094;50.972;3.538;2023-10-19T12:48:38;6.28;;;2.35;;
32705;SDS011;19094;50.972;3.538;2023-10-19T12:51:05;8.68;;;2.22;;
32705;SDS011;19094;50.972;3.538;2023-10-19T12:53:36;13.25;;;2.20;;
32705;SDS011;19094;50.972;3.538;2023-10-19T12:56:03;8.35;;;2.22;;
32705;SDS011;19094;50.972;3.538;2023-10-19T12:58:30;9.05;;;2.75;;
32705;SDS011;19094;50.972;3.538;2023-10-19T13:00:57;5.60;;;2.30;;
32705;SDS011;19094;50.972;3.538;2023-10-19T13:03:23;5.18;;;1.70;;
32705;SDS011;19094;50.972;3.538;2023-10-19T13:05:52;5.10;;;1.73;;
32705;SDS011;19094;50.972;3.538;2023-10-19T13:08:18;5.53;;;2.30;;
32705;SDS011;19094;50.972;3.538;2023-10-19T13:10:46;5.90;;;2.33;;
32705;SDS011;19094;50.972;3.538;2023-10-19T13:13:13;9.23;;;2.28;;
32705;SDS011;19094;50.972;3.538;2023-10-19T13:15:42;5.35;;;1.95;;
32705;SDS011;19094;50.972;3.538;2023-10-19T13:18:13;4.18;;;1.60;;
32705;SDS011;19094;50.972;3.538;2023-10-19T13:20:44;7.15;;;2.20;;
32705;SDS011;19094;50.972;3.538;2023-10-19T13:23:11;5.75;;;2.00;;
32705;SDS011;19094;50.972;3.538;2023-10-19T13:25:37;6.97;;;2.10;;
32705;SDS011;19094;50.972;3.538;2023-10-19T13:28:11;6.47;;;2.05;;
32705;SDS011;19094;50.972;3.538;2023-10-19T13:30:41;5.93;;;2.47;;
32705;SDS011;19094;50.972;3.538;2023-10-19T13:33:12;5.90;;;2.45;;
32705;SDS011;19094;50.972;3.538;2023-10-19T13:35:39;5.70;;;2.13;;
32705;SDS011;19094;50.972;3.538;2023-10-19T13:38:06;6.20;;;2.72;;
32705;SDS011;19094;50.972;3.538;2023-10-19T13:40:36;8.57;;;2.55;;
32705;SDS011;19094;50.972;3.538;2023-10-19T13:43:05;6.97;;;2.20;;
32705;SDS011;19094;50.972;3.538;2023-10-19T13:45:33;7.03;;;2.40;;
32705;SDS011;19094;50.972;3.538;2023-10-19T13:48:00;8.85;;;3.05;;
32705;SDS011;19094;50.972;3.538;2023-10-19T13:50:30;7.68;;;2.80;;
32705;SDS011;19094;50.972;3.538;2023-10-19T13:52:56;12.63;;;2.83;;
32705;SDS011;19094;50.972;3.538;2023-10-19T13:55:22;7.18;;;2.97;;
32705;SDS011;19094;50.972;3.538;2023-10-19T13:57:48;6.13;;;2.60;;
32705;SDS011;19094;50.972;3.538;2023-10-19T14:00:15;5.70;;;2.50;;
32705;SDS011;19094;50.972;3.538;2023-10-19T14:02:48;6.38;;;2.45;;
32705;SDS011;19094;50.972;3.538;2023-10-19T14:05:15;6.55;;;2.20;;
32705;SDS011;19094;50.972;3.538;2023-10-19T14:07:41;8.75;;;2.33;;
32705;SDS011;19094;50.972;3.538;2023-10-19T14:10:08;10.10;;;2.50;;
32705;SDS011;19094;50.972;3.538;2023-10-19T14:12:38;6.55;;;2.05;;
32705;SDS011;19094;50.972;3.538;2023-10-19T14:15:10;5.10;;;2.15;;
32705;SDS011;19094;50.972;3.538;2023-10-19T14:17:40;8.27;;;2.03;;
32705;SDS011;19094;50.972;3.538;2023-10-19T14:20:07;9.20;;;2.10;;
32705;SDS011;19094;50.972;3.538;2023-10-19T14:22:42;6.20;;;1.75;;
32705;SDS011;19094;50.972;3.538;2023-10-19T14:25:13;3.90;;;1.90;;
32705;SDS011;19094;50.972;3.538;2023-10-19T14:27:43;4.28;;;1.85;;
32705;SDS011;19094;50.972;3.538;2023-10-19T14:30:09;6.78;;;1.98;;
32705;SDS011;19094;50.972;3.538;2023-10-19T14:32:44;5.35;;;1.88;;
32705;SDS011;19094;50.972;3.538;2023-10-19T14:35:14;4.63;;;2.20;;
32705;SDS011;19094;50.972;3.538;2023-10-19T14:37:42;4.97;;;2.17;;
32705;SDS011;19094;50.972;3.538;2023-10-19T14:40:10;5.85;;;2.25;;
32705;SDS011;19094;50.972;3.538;2023-10-19T14:42:46;11.30;;;2.30;;
32705;SDS011;19094;50.972;3.538;2023-10-19T14:45:13;7.60;;;2.30;;
32705;SDS011;19094;50.972;3.538;2023-10-19T14:47:41;6.05;;;2.17;;
32705;SDS011;19094;50.972;3.538;2023-10-19T14:50:10;6.88;;;2.38;;
32705;SDS011;19094;50.972;3.538;2023-10-19T14:52:39;5.60;;;2.00;;
32705;SDS011;19094;50.972;3.538;2023-10-19T14:55:06;3.85;;;1.92;;
32705;SDS011;19094;50.972;3.538;2023-10-19T14:57:33;8.07;;;2.15;;
32705;SDS011;19094;50.972;3.538;2023-10-19T14:59:58;6.47;;;1.83;;
32705;SDS011;19094;50.972;3.538;2023-10-19T15:02:51;6.88;;;1.88;;
32705;SDS011;19094;50.972;3.538;2023-10-19T15:05:19;6.95;;;2.50;;